Time;durP1;ratioP1;P1;durP2;ratioP2;P2;SDS_P1;SDS_P2;PMS_P1;PMS_P2;Temp;Humidity;BMP_temperature;BMP_pressure;BME280_temperature;BME280_humidity;BME280_pressure;Samples;Min_cycle;Max_cycle;Signal;HPM_P1;HPM_P2
2023/05/12 00:00:47;;;;;;;8.10;4.60;;;;;;;9.88;44.46;100230.52;107679;1256;61311;-36
2023/05/12 00:03:15;;;;;;;8.10;4.80;;;;;;;9.91;44.59;100229.57;107649;1256;62603;-36
2023/05/12 00:05:42;;;;;;;7.50;4.80;;;;;;;9.94;44.22;100226.95;107613;1256;74553;-36
2023/05/12 00:08:10;;;;;;;9.40;4.70;;;;;;;9.97;44.77;100229.00;107616;1251;69640;-36
2023/05/12 00:10:37;;;;;;;7.20;5.00;;;;;;;9.98;44.71;100227.01;107598;1252;74417;-37
2023/05/12 00:13:04;;;;;;;7.90;4.80;;;;;;;9.99;44.51;100226.30;107702;1256;62735;-36
2023/05/12 00:15:31;;;;;;;9.20;5.20;;;;;;;10.02;44.71;100225.29;107735;1257;60494;-36
2023/05/12 00:17:58;;;;;;;11.50;5.10;;;;;;;10.03;44.66;100224.80;107630;1251;75401;-37
2023/05/12 00:20:26;;;;;;;8.40;5.30;;;;;;;10.04;44.65;100225.52;107706;1256;69447;-37
2023/05/12 00:22:53;;;;;;;8.70;4.90;;;;;;;10.04;44.38;100225.52;107682;1257;73807;-37
2023/05/12 00:25:20;;;;;;;7.50;4.40;;;;;;;10.04;44.26;100226.22;107653;1257;62349;-36
2023/05/12 00:27:47;;;;;;;13.10;4.70;;;;;;;10.03;43.96;100221.70;106888;1251;1003781;-38
2023/05/12 00:30:15;;;;;;;8.60;4.60;;;;;;;10.02;43.96;100222.76;107431;1257;74367;-38
2023/05/12 00:32:42;;;;;;;6.60;4.40;;;;;;;10.02;44.21;100224.58;107614;1251;69434;-38
2023/05/12 00:35:09;;;;;;;8.60;4.80;;;;;;;10.01;43.93;100225.11;107450;1257;73692;-37
2023/05/12 00:37:36;;;;;;;8.30;5.00;;;;;;;9.99;44.25;100228.14;107627;1257;61042;-36
2023/05/12 00:40:04;;;;;;;11.60;4.40;;;;;;;9.98;44.17;100228.39;107670;1256;61862;-37
2023/05/12 00:42:33;;;;;;;6.40;4.10;;;;;;;9.95;44.24;100227.55;107716;1251;74830;-37
2023/05/12 00:45:01;;;;;;;5.70;4.30;;;;;;;9.94;44.30;100231.20;107865;1256;69918;-37
2023/05/12 00:47:29;;;;;;;6.40;4.20;;;;;;;9.91;44.11;100228.08;107814;1255;73778;-36
2023/05/12 00:49:56;;;;;;;8.50;5.00;;;;;;;9.89;43.78;100231.23;107745;1254;61976;-36
2023/05/12 00:52:23;;;;;;;7.70;4.20;;;;;;;9.88;44.07;100228.74;107790;1256;59838;-37
2023/05/12 00:54:51;;;;;;;10.60;4.50;;;;;;;9.86;43.92;100238.28;107649;1251;75374;-36
2023/05/12 00:57:19;;;;;;;11.10;4.00;;;;;;;9.84;43.98;100231.00;107690;1251;66937;-36
2023/05/12 00:59:47;;;;;;;9.70;4.90;;;;;;;9.81;44.28;100231.55;107557;1260;73391;-37
2023/05/12 01:02:14;;;;;;;7.90;4.80;;;;;;;9.79;44.43;100234.36;107518;1251;61692;-36
2023/05/12 01:04:42;;;;;;;8.20;4.40;;;;;;;9.75;44.49;100232.62;107711;1258;59368;-36
2023/05/12 01:07:13;;;;;;;8.80;4.90;;;;;;;9.73;44.36;100235.55;107743;1251;74594;-36
2023/05/12 01:09:41;;;;;;;8.30;4.50;;;;;;;9.69;44.20;100234.49;107563;1257;70397;-37
2023/05/12 01:12:08;;;;;;;6.50;4.40;;;;;;;9.66;44.15;100238.56;107634;1251;71941;-37
2023/05/12 01:14:36;;;;;;;8.60;4.50;;;;;;;9.63;44.32;100237.06;107618;1251;61088;-37
2023/05/12 01:17:07;;;;;;;10.10;4.20;;;;;;;9.61;44.22;100239.52;107645;1257;61491;-37
2023/05/12 01:19:53;;;;;;;8.70;4.50;;;;;;;9.58;44.56;100236.90;107559;1257;75035;-38
2023/05/12 01:22:21;;;;;;;9.00;4.60;;;;;;;9.56;44.70;100242.20;107435;1253;68788;-37
2023/05/12 01:24:57;;;;;;;6.00;4.30;;;;;;;9.49;44.55;100237.39;107401;1251;73119;-37
2023/05/12 01:27:26;;;;;;;9.50;4.90;;;;;;;9.40;44.43;100234.27;107602;1251;61825;-37
2023/05/12 01:29:57;;;;;;;;;;;;;;;9.35;44.23;100237.40;107780;1251;59464;-37
2023/05/12 01:32:25;;;;;;;7.30;4.20;;;;;;;9.29;44.61;100240.98;107677;1251;75197;-37
2023/05/12 01:34:52;;;;;;;8.10;4.50;;;;;;;9.27;44.70;100241.89;107522;1254;68290;-37
2023/05/12 01:37:20;;;;;;;6.50;4.80;;;;;;;9.31;44.75;100242.73;107601;1257;73830;-37
2023/05/12 01:39:47;;;;;;;8.50;5.30;;;;;;;9.33;44.65;100241.27;107420;1254;61749;-37
2023/05/12 01:42:18;;;;;;;7.80;4.80;;;;;;;9.35;44.75;100241.52;107356;1254;59511;-37
2023/05/12 01:44:46;;;;;;;9.10;5.00;;;;;;;9.38;45.03;100242.99;107501;1254;75331;-37
2023/05/12 01:47:14;;;;;;;7.90;5.90;;;;;;;9.39;45.19;100242.20;107485;1257;70361;-37
2023/05/12 01:49:47;;;;;;;8.90;5.40;;;;;;;9.41;45.32;100242.96;107505;1254;72808;-37
2023/05/12 01:52:15;;;;;;;10.00;5.50;;;;;;;9.41;45.69;100238.41;107479;1254;60279;-37
2023/05/12 01:54:42;;;;;;;9.20;5.70;;;;;;;9.39;45.76;100239.04;107454;1254;59772;-37
2023/05/12 01:57:10;;;;;;;9.00;5.30;;;;;;;9.35;45.61;100242.59;107495;1254;71833;-37
2023/05/12 01:59:38;;;;;;;11.60;5.90;;;;;;;9.31;45.36;100237.17;107517;1253;66760;-37
2023/05/12 02:02:06;;;;;;;7.20;5.40;;;;;;;9.28;45.23;100238.98;107558;1254;72087;-37
2023/05/12 02:04:33;;;;;;;8.00;5.80;;;;;;;9.26;45.48;100242.99;107340;1253;59630;-37
2023/05/12 02:07:00;;;;;;;8.00;5.50;;;;;;;9.25;45.86;100238.58;107535;1254;60551;-37
2023/05/12 02:09:28;;;;;;;7.80;5.90;;;;;;;9.24;45.69;100237.83;107435;1253;74270;-37
2023/05/12 02:11:58;;;;;;;9.70;6.50;;;;;;;9.18;45.44;100243.02;107454;1254;68818;-37
2023/05/12 02:14:26;;;;;;;11.90;5.90;;;;;;;9.12;45.53;100242.17;107376;1260;72720;-38
2023/05/12 02:16:54;;;;;;;9.90;5.60;;;;;;;9.07;45.57;100244.39;107433;1254;60620;-37
2023/05/12 02:19:22;;;;;;;8.20;6.10;;;;;;;9.03;46.03;100244.55;107513;1254;61548;-37
2023/05/12 02:21:49;;;;;;;8.60;5.60;;;;;;;9.05;46.29;100243.67;107517;1254;74691;-37
2023/05/12 02:24:17;;;;;;;8.40;5.80;;;;;;;9.06;46.34;100244.73;107274;1254;70169;-37
2023/05/12 02:26:44;;;;;;;10.20;5.50;;;;;;;9.02;45.94;100243.95;107350;1254;74393;-37
2023/05/12 02:29:12;;;;;;;9.20;6.10;;;;;;;8.97;46.26;100242.07;107242;1254;60223;-38
2023/05/12 02:31:39;;;;;;;10.20;5.60;;;;;;;8.97;46.43;100243.34;107323;1258;62207;-38
2023/05/12 02:34:14;;;;;;;11.40;5.80;;;;;;;8.96;46.59;100248.27;107257;1254;74340;-37
2023/05/12 02:36:41;;;;;;;9.60;6.00;;;;;;;8.96;46.59;100244.40;107444;1254;70248;-37
2023/05/12 02:39:09;;;;;;;14.70;5.90;;;;;;;8.95;46.18;100245.14;107436;1254;71630;-37
2023/05/12 02:41:37;;;;;;;11.10;6.10;;;;;;;8.94;46.39;100243.34;107433;1254;61704;-37
2023/05/12 02:44:04;;;;;;;8.50;5.50;;;;;;;8.93;46.39;100245.31;107271;1260;62404;-38
2023/05/12 02:46:31;;;;;;;10.80;6.10;;;;;;;8.92;46.93;100245.41;107205;1254;73501;-37
2023/05/12 02:48:59;;;;;;;9.80;5.70;;;;;;;8.91;47.32;100247.61;107164;1260;70411;-37
2023/05/12 02:51:26;;;;;;;9.40;5.70;;;;;;;8.90;47.42;100243.10;107229;1254;74074;-38
2023/05/12 02:53:53;;;;;;;7.60;5.40;;;;;;;8.89;47.55;100244.45;107243;1258;61601;-37
2023/05/12 02:56:21;;;;;;;8.40;6.00;;;;;;;8.89;47.63;100247.27;107254;1254;62671;-38
2023/05/12 02:58:48;;;;;;;7.40;5.80;;;;;;;8.88;47.45;100252.20;107305;1260;74354;-37
2023/05/12 03:01:15;;;;;;;12.20;6.10;;;;;;;8.88;47.17;100249.56;107314;1260;69359;-37
2023/05/12 03:03:42;;;;;;;12.80;5.90;;;;;;;8.88;46.99;100254.66;107372;1254;74945;-37
2023/05/12 03:06:10;;;;;;;9.00;5.20;;;;;;;8.89;47.19;100258.25;107359;1254;60041;-38
2023/05/12 03:08:38;;;;;;;10.80;5.50;;;;;;;8.92;47.56;100256.29;107399;1254;62637;-37
2023/05/12 03:11:05;;;;;;;10.60;5.80;;;;;;;8.95;47.77;100256.65;107473;1254;74613;-37
2023/05/12 03:13:32;;;;;;;8.40;5.30;;;;;;;8.98;48.21;100260.97;107196;1254;68968;-38
2023/05/12 03:16:00;;;;;;;10.80;6.10;;;;;;;9.02;48.16;100261.65;107276;1257;73153;-37
2023/05/12 03:18:28;;;;;;;10.30;5.70;;;;;;;9.05;48.35;100264.64;107442;1254;60313;-37
2023/05/12 03:20:55;;;;;;;8.80;6.20;;;;;;;9.10;48.78;100264.20;107530;1260;60348;-38
2023/05/12 03:23:23;;;;;;;14.80;6.20;;;;;;;9.15;48.76;100269.11;107439;1254;72822;-38
2023/05/12 03:25:50;;;;;;;11.10;5.70;;;;;;;9.20;48.49;100270.29;107463;1254;69962;-38
2023/05/12 03:28:18;;;;;;;10.90;5.60;;;;;;;9.24;48.07;100271.53;107467;1254;74748;-38
2023/05/12 03:30:45;;;;;;;9.60;5.70;;;;;;;9.30;48.13;100274.79;107456;1254;61863;-38
2023/05/12 03:33:12;;;;;;;14.40;5.60;;;;;;;9.30;47.80;100268.89;107468;1254;62224;-38
2023/05/12 03:35:39;;;;;;;9.20;6.00;;;;;;;9.39;47.24;100277.59;107171;1254;72650;-38
2023/05/12 03:38:06;;;;;;;11.90;5.60;;;;;;;9.42;47.12;100276.57;107231;1254;69035;-38
2023/05/12 03:40:33;;;;;;;12.70;5.90;;;;;;;9.46;47.11;100277.89;107369;1254;74431;-38
2023/05/12 03:43:01;;;;;;;10.40;5.90;;;;;;;9.50;47.15;100273.30;107433;1254;60425;-38
2023/05/12 03:45:28;;;;;;;8.10;5.60;;;;;;;9.56;46.85;100272.06;107139;1254;60378;-38
2023/05/12 03:47:56;;;;;;;13.20;6.70;;;;;;;9.58;46.64;100270.11;107344;1254;75459;-38
2023/05/12 03:50:23;;;;;;;8.80;6.00;;;;;;;9.62;46.74;100273.44;107253;1254;69659;-38
2023/05/12 03:52:54;;;;;;;12.30;5.40;;;;;;;9.66;47.06;100271.91;107392;1254;74762;-38
2023/05/12 03:55:22;;;;;;;9.20;6.10;;;;;;;9.72;47.21;100274.34;107315;1257;61786;-38
2023/05/12 03:57:49;;;;;;;10.20;6.20;;;;;;;9.75;47.40;100272.23;107461;1253;62342;-38
2023/05/12 04:00:17;;;;;;;12.60;6.60;;;;;;;9.78;47.03;100274.30;107433;1254;75158;-38
2023/05/12 04:02:45;;;;;;;10.70;6.20;;;;;;;9.82;46.98;100276.27;107336;1254;67964;-38
2023/05/12 04:05:12;;;;;;;10.90;6.40;;;;;;;9.86;46.86;100275.18;107278;1254;74841;-38
2023/05/12 04:07:40;;;;;;;10.80;6.10;;;;;;;9.90;46.79;100269.05;107358;1261;60520;-38
2023/05/12 04:10:07;;;;;;;14.80;5.90;;;;;;;9.94;46.71;100271.77;107183;1253;60220;-38
2023/05/12 04:12:35;;;;;;;8.40;5.50;;;;;;;9.96;46.86;100272.30;107379;1259;75793;-38
2023/05/12 04:15:03;;;;;;;17.20;6.10;;;;;;;10.01;47.00;100271.18;107470;1254;69087;-38
2023/05/12 04:17:30;;;;;;;18.50;5.30;;;;;;;10.07;46.84;100275.79;107295;1255;74895;-38
2023/05/12 04:19:58;;;;;;;13.50;6.00;;;;;;;10.12;46.81;100282.46;107372;1254;61032;-38
2023/05/12 04:22:25;;;;;;;14.80;5.90;;;;;;;10.18;46.81;100283.00;107374;1254;62272;-38
2023/05/12 04:24:53;;;;;;;14.00;5.80;;;;;;;10.24;46.90;100280.66;107457;1254;72836;-38
2023/05/12 04:27:20;;;;;;;14.90;5.60;;;;;;;10.30;46.69;100280.58;107274;1254;66944;-38
2023/05/12 04:29:47;;;;;;;12.40;6.00;;;;;;;10.37;46.62;100281.73;107344;1254;74028;-38
2023/05/12 04:32:15;;;;;;;11.90;5.30;;;;;;;10.43;46.63;100287.20;107120;1253;62962;-38
2023/05/12 04:34:42;;;;;;;13.10;5.90;;;;;;;10.49;46.96;100289.73;107326;1254;61325;-38
2023/05/12 04:37:09;;;;;;;10.80;5.90;;;;;;;10.55;47.16;100289.02;107240;1254;75381;-38
2023/05/12 04:39:36;;;;;;;18.00;6.20;;;;;;;10.62;47.40;100290.87;107189;1254;69474;-38
2023/05/12 04:42:04;;;;;;;21.00;6.10;;;;;;;10.67;47.45;100295.45;107276;1255;74826;-38
2023/05/12 04:44:33;;;;;;;12.60;5.60;;;;;;;10.73;47.32;100294.59;107184;1257;62052;-38
2023/05/12 04:47:00;;;;;;;13.80;5.50;;;;;;;10.80;47.45;100294.52;107153;1253;62152;-38
2023/05/12 04:49:29;;;;;;;12.60;5.10;;;;;;;10.88;47.59;100293.06;107423;1254;74224;-38
2023/05/12 04:51:56;;;;;;;13.70;5.80;;;;;;;10.97;47.81;100294.33;107369;1254;68697;-38
2023/05/12 04:54:23;;;;;;;9.80;5.40;;;;;;;11.07;48.02;100296.97;107307;1253;75064;-38
2023/05/12 04:56:51;;;;;;;10.60;5.30;;;;;;;11.14;48.17;100297.23;107434;1259;60455;-38
2023/05/12 04:59:18;;;;;;;10.20;5.80;;;;;;;11.21;48.18;100294.89;107556;1254;60353;-38
2023/05/12 05:01:47;;;;;;;9.60;5.10;;;;;;;11.28;48.18;100290.60;107495;1254;74112;-38
2023/05/12 05:04:15;;;;;;;6.90;4.90;;;;;;;11.37;48.35;100292.65;107521;1254;68006;-38
2023/05/12 05:06:42;;;;;;;6.90;4.70;;;;;;;11.47;48.35;100296.83;107263;1253;74761;-38
2023/05/12 05:09:10;;;;;;;11.50;5.40;;;;;;;11.57;48.18;100295.13;107165;1257;62453;-38
2023/05/12 05:11:39;;;;;;;11.20;6.80;;;;;;;11.69;47.96;100295.55;107321;1260;61431;-38
2023/05/12 05:14:06;;;;;;;11.10;5.90;;;;;;;11.79;47.72;100292.05;107226;1253;75825;-39
2023/05/12 05:16:34;;;;;;;12.90;7.50;;;;;;;11.89;47.55;100293.13;107334;1253;68199;-38
2023/05/12 05:19:02;;;;;;;12.70;7.50;;;;;;;12.01;47.36;100294.23;107283;1254;74957;-38
2023/05/12 05:21:33;;;;;;;12.60;6.50;;;;;;;12.12;47.32;100296.88;107288;1255;60488;-38
2023/05/12 05:24:00;;;;;;;7.00;5.20;;;;;;;12.24;47.90;100298.77;107303;1253;60371;-38
2023/05/12 05:26:27;;;;;;;8.20;4.50;;;;;;;12.36;47.66;100298.14;107266;1255;75891;-38
2023/05/12 05:28:55;;;;;;;8.30;4.70;;;;;;;12.47;47.39;100296.17;107305;1255;69938;-38
2023/05/12 05:31:24;;;;;;;11.30;4.40;;;;;;;12.60;47.11;100294.04;107476;1254;73776;-38
2023/05/12 05:33:51;;;;;;;9.00;4.40;;;;;;;12.74;46.91;100295.14;107372;1256;62726;-38
2023/05/12 05:36:18;;;;;;;7.20;4.60;;;;;;;12.86;46.57;100293.61;107428;1253;60451;-38
2023/05/12 05:38:47;;;;;;;6.60;4.20;;;;;;;13.00;46.47;100298.92;107453;1254;73074;-38
2023/05/12 05:41:14;;;;;;;5.60;3.80;;;;;;;13.12;46.34;100297.35;107323;1254;70796;-38
2023/05/12 05:43:41;;;;;;;7.30;3.60;;;;;;;13.24;46.46;100295.70;107415;1254;73962;-38
2023/05/12 05:46:08;;;;;;;5.10;3.50;;;;;;;13.39;46.49;100300.33;107304;1260;62685;-38
2023/05/12 05:48:37;;;;;;;9.80;3.90;;;;;;;13.54;46.87;100296.84;107449;1259;60458;-38
2023/05/12 05:51:05;;;;;;;17.50;4.10;;;;;;;13.67;46.20;100296.65;107431;1253;74420;-38
2023/05/12 05:53:32;;;;;;;13.30;3.70;;;;;;;13.82;45.95;100297.44;107418;1254;70257;-38
2023/05/12 05:56:00;;;;;;;18.20;4.20;;;;;;;13.99;46.19;100297.23;107417;1253;72575;-38
2023/05/12 05:58:27;;;;;;;16.40;3.90;;;;;;;14.17;45.41;100293.70;107501;1254;62540;-38
2023/05/12 06:00:55;;;;;;;12.30;4.00;;;;;;;14.35;45.01;100294.14;107434;1253;60925;-38
2023/05/12 06:03:22;;;;;;;7.10;3.80;;;;;;;14.51;44.73;100293.97;107465;1253;74030;-38
2023/05/12 06:05:50;;;;;;;11.40;4.10;;;;;;;14.66;44.31;100295.79;107471;1253;68775;-38
2023/05/12 06:08:17;;;;;;;7.10;3.50;;;;;;;14.79;43.87;100295.87;107291;1253;74656;-38
2023/05/12 06:10:44;;;;;;;7.70;3.50;;;;;;;14.93;43.36;100295.54;107234;1253;62504;-38
2023/05/12 06:13:12;;;;;;;6.00;3.00;;;;;;;15.06;44.10;100295.05;107212;1253;62430;-39
2023/05/12 06:15:39;;;;;;;7.50;2.70;;;;;;;15.20;43.37;100293.86;107402;1252;74857;-38
2023/05/12 06:18:06;;;;;;;7.50;3.20;;;;;;;15.34;43.74;100292.50;107374;1253;70252;-38
2023/05/12 06:20:33;;;;;;;7.80;3.20;;;;;;;15.46;42.81;100296.12;107253;1253;74201;-38
2023/05/12 06:23:00;;;;;;;14.40;4.30;;;;;;;15.59;42.09;100292.96;107434;1253;61441;-38
2023/05/12 06:25:28;;;;;;;13.70;3.70;;;;;;;15.72;42.49;100296.96;107400;1253;62180;-38
2023/05/12 06:27:55;;;;;;;6.40;3.70;;;;;;;15.83;42.74;100292.96;107386;1254;75506;-38
2023/05/12 06:30:22;;;;;;;6.60;2.90;;;;;;;15.94;42.62;100295.83;107247;1253;69787;-38
2023/05/12 06:32:53;;;;;;;7.20;3.50;;;;;;;16.03;42.70;100295.31;107352;1256;73054;-38
2023/05/12 06:35:21;;;;;;;8.40;3.40;;;;;;;16.13;41.47;100299.34;107251;1256;61282;-38
2023/05/12 06:37:49;;;;;;;5.30;2.80;;;;;;;16.22;41.20;100300.13;107309;1253;62325;-39
2023/05/12 06:40:17;;;;;;;6.50;2.80;;;;;;;16.26;40.35;100299.08;107514;1255;75756;-39
2023/05/12 06:42:44;;;;;;;8.50;3.40;;;;;;;16.37;39.55;100300.08;107473;1253;69994;-39
2023/05/12 06:45:16;;;;;;;5.60;2.70;;;;;;;16.41;39.07;100293.40;107304;1258;74103;-39
2023/05/12 06:47:43;;;;;;;7.80;3.10;;;;;;;16.53;39.36;100298.59;107581;1253;62067;-39
2023/05/12 06:50:10;;;;;;;5.70;2.60;;;;;;;16.63;38.88;100297.70;107509;1253;61073;-39
2023/05/12 06:52:38;;;;;;;7.20;2.50;;;;;;;16.72;39.10;100299.98;107572;1253;73812;-39
2023/05/12 06:55:05;;;;;;;9.00;2.80;;;;;;;16.82;38.69;100295.45;107519;1257;70434;-39
2023/05/12 06:57:33;;;;;;;6.30;2.20;;;;;;;16.91;38.32;100295.05;107496;1254;73910;-40
2023/05/12 07:00:02;;;;;;;5.70;2.10;;;;;;;17.04;37.59;100295.92;107495;1254;61504;-38
2023/05/12 07:02:29;;;;;;;6.50;2.80;;;;;;;17.14;37.75;100294.92;107475;1253;62171;-39
2023/05/12 07:04:57;;;;;;;4.10;2.50;;;;;;;17.23;37.99;100293.95;107474;1257;75622;-38
2023/05/12 07:07:24;;;;;;;7.40;2.50;;;;;;;17.31;38.36;100292.27;107426;1258;69199;-39
2023/05/12 07:09:51;;;;;;;4.40;2.60;;;;;;;17.39;38.21;100291.40;107417;1253;74043;-39
2023/05/12 07:12:18;;;;;;;7.10;2.90;;;;;;;17.50;37.79;100294.44;107430;1253;62322;-38
2023/05/12 07:14:47;;;;;;;4.30;2.40;;;;;;;17.62;36.74;100292.96;107523;1253;62633;-38
2023/05/12 07:17:14;;;;;;;4.70;2.50;;;;;;;17.71;36.94;100292.55;107480;1253;73407;-38
2023/05/12 07:19:42;;;;;;;3.60;2.30;;;;;;;17.77;36.66;100296.02;107478;1258;69388;-39
2023/05/12 07:22:10;;;;;;;4.90;1.80;;;;;;;17.86;35.38;100297.94;107594;1253;74895;-38
2023/05/12 07:24:37;;;;;;;5.70;2.40;;;;;;;17.95;34.21;100294.61;107478;1253;61466;-38
2023/05/12 07:27:05;;;;;;;6.50;2.60;;;;;;;18.02;35.67;100297.30;107519;1253;62528;-38
2023/05/12 07:29:32;;;;;;;8.90;3.10;;;;;;;18.09;35.32;100301.55;107472;1253;75848;-38
2023/05/12 07:31:59;;;;;;;8.50;2.50;;;;;;;18.13;35.33;100301.96;107490;1253;69855;-38
2023/05/12 07:34:26;;;;;;;2.40;2.20;;;;;;;18.18;35.15;100303.63;107325;1254;74877;-39
2023/05/12 07:36:53;;;;;;;5.00;2.40;;;;;;;18.27;34.81;100296.75;107365;1253;62700;-38
2023/05/12 07:39:22;;;;;;;8.00;2.40;;;;;;;18.39;34.10;100296.06;107401;1258;60766;-38
2023/05/12 07:41:51;;;;;;;5.20;2.20;;;;;;;18.48;34.15;100289.73;107383;1259;74161;-38
2023/05/12 07:44:18;;;;;;;3.40;2.10;;;;;;;18.58;33.42;100290.64;107363;1258;68830;-39
2023/05/12 07:46:46;;;;;;;3.60;2.30;;;;;;;18.67;33.32;100284.13;107471;1253;74641;-39
2023/05/12 07:49:13;;;;;;;6.90;2.20;;;;;;;18.76;33.38;100286.42;107464;1253;60940;-39
2023/05/12 07:51:40;;;;;;;6.00;2.60;;;;;;;18.86;32.81;100287.77;107533;1253;61642;-39
2023/05/12 07:54:07;;;;;;;3.00;2.20;;;;;;;18.95;32.49;100291.20;107499;1254;76122;-40
2023/05/12 07:56:34;;;;;;;4.90;2.10;;;;;;;18.99;32.61;100293.65;107468;1253;70003;-40
2023/05/12 07:59:02;;;;;;;4.50;2.40;;;;;;;19.05;32.71;100287.68;107363;1253;73102;-40
2023/05/12 08:01:30;;;;;;;4.60;2.40;;;;;;;19.14;33.07;100282.87;107421;1258;61560;-40
2023/05/12 08:03:57;;;;;;;5.10;2.60;;;;;;;19.29;32.46;100280.34;107370;1253;61444;-40
2023/05/12 08:06:25;;;;;;;3.80;2.00;;;;;;;19.40;31.55;100278.90;107365;1253;76399;-40
2023/05/12 08:08:52;;;;;;;4.50;2.40;;;;;;;19.49;31.38;100278.75;107404;1253;70143;-40
2023/05/12 08:11:19;;;;;;;4.10;2.40;;;;;;;19.56;31.16;100271.73;107514;1253;75232;-40
2023/05/12 08:13:47;;;;;;;7.20;2.90;;;;;;;19.72;31.62;100284.89;107429;1253;61840;-40
2023/05/12 08:16:14;;;;;;;5.00;2.10;;;;;;;19.81;30.30;100287.84;107467;1253;62671;-40
2023/05/12 08:18:41;;;;;;;3.50;2.30;;;;;;;19.81;29.76;100282.73;107566;1253;76529;-40
2023/05/12 08:21:08;;;;;;;2.60;2.20;;;;;;;19.81;28.91;100281.55;107555;1256;68322;-40
2023/05/12 08:23:38;;;;;;;3.20;2.10;;;;;;;19.81;28.96;100283.98;107474;1257;74990;-39
2023/05/12 08:26:06;;;;;;;5.40;2.30;;;;;;;19.84;29.13;100282.25;107529;1254;62482;-40
2023/05/12 08:28:33;;;;;;;4.40;2.40;;;;;;;19.86;29.61;100280.98;107543;1253;61436;-39
2023/05/12 08:31:01;;;;;;;4.50;2.50;;;;;;;19.90;29.75;100283.80;107488;1253;75955;-39
2023/05/12 08:33:30;;;;;;;4.60;2.40;;;;;;;19.95;29.40;100283.54;107535;1253;66755;-40
2023/05/12 08:35:58;;;;;;;3.60;2.50;;;;;;;20.02;29.53;100283.11;107439;1253;74925;-40
2023/05/12 08:38:25;;;;;;;3.80;2.40;;;;;;;20.11;29.02;100281.81;107476;1253;61892;-40
2023/05/12 08:41:12;;;;;;;3.50;2.30;;;;;;;20.22;28.48;100277.02;107283;1253;61479;-40
2023/05/12 08:43:44;;;;;;;3.80;2.60;;;;;;;20.39;28.09;100276.81;107402;1253;75840;-40
2023/05/12 08:46:11;;;;;;;4.00;2.70;;;;;;;20.46;28.61;100273.21;107513;1253;68305;-37
2023/05/12 08:48:40;;;;;;;5.00;3.00;;;;;;;20.52;29.67;100274.66;107395;1253;74134;-38
2023/05/12 08:51:11;;;;;;;5.10;2.50;;;;;;;20.60;30.10;100269.58;107464;1254;61418;-38
2023/05/12 08:53:40;;;;;;;7.60;2.70;;;;;;;20.65;30.44;100266.00;107394;1255;60583;-38
2023/05/12 08:56:09;;;;;;;6.00;3.00;;;;;;;20.75;30.51;100264.27;107296;1253;75981;-39
2023/05/12 08:58:40;;;;;;;5.90;3.10;;;;;;;20.83;30.67;100263.33;107408;1253;69512;-38
2023/05/12 09:01:09;;;;;;;5.80;2.70;;;;;;;20.85;30.31;100264.33;107291;1253;73518;-39
2023/05/12 09:03:37;;;;;;;4.60;2.70;;;;;;;20.91;28.88;100256.09;107298;1260;61288;-39
2023/05/12 09:06:05;;;;;;;5.30;2.40;;;;;;;21.02;29.19;100254.89;107428;1253;62659;-39
2023/05/12 09:08:33;;;;;;;8.20;2.60;;;;;;;21.20;29.53;100256.63;107464;1253;74935;-39
2023/05/12 09:11:01;;;;;;;5.80;2.80;;;;;;;21.44;29.31;100251.66;107447;1253;70309;-39
2023/05/12 09:13:45;;;;;;;6.60;2.50;;;;;;;21.60;29.24;100256.59;107403;1255;74762;-39
2023/05/12 09:16:12;;;;;;;3.90;2.30;;;;;;;21.66;28.23;100257.15;107401;1256;61508;-39
2023/05/12 09:18:47;;;;;;;7.70;2.80;;;;;;;21.57;28.39;100251.89;107476;1258;60875;-39
2023/05/12 09:21:15;;;;;;;2.90;2.10;;;;;;;21.52;28.12;100254.80;107364;1253;75346;-39
2023/05/12 09:23:59;;;;;;;5.60;2.40;;;;;;;21.45;27.39;100248.33;107480;1253;70060;-39
2023/05/12 09:26:27;;;;;;;4.40;2.10;;;;;;;21.24;28.04;100248.17;107368;1255;74873;-39
2023/05/12 09:29:05;;;;;;;4.70;2.20;;;;;;;20.96;27.48;100257.70;107394;1253;62009;-39
2023/05/12 09:31:32;;;;;;;3.20;2.10;;;;;;;20.65;27.90;100251.67;107387;1253;62629;-39
2023/05/12 09:34:01;;;;;;;4.50;2.30;;;;;;;20.42;27.74;100255.20;107411;1254;75518;-39
2023/05/12 09:36:28;;;;;;;3.40;2.10;;;;;;;20.23;27.73;100253.82;107482;1253;70495;-39
2023/05/12 09:39:03;;;;;;;6.50;2.10;;;;;;;20.11;28.62;100249.87;107329;1256;74779;-39
2023/05/12 09:41:33;;;;;;;3.40;2.10;;;;;;;20.01;28.18;100248.91;107509;1254;62262;-39
2023/05/12 09:44:01;;;;;;;6.60;2.70;;;;;;;20.02;28.02;100250.09;107494;1254;61723;-39
2023/05/12 09:46:28;;;;;;;5.40;2.50;;;;;;;20.17;28.35;100245.43;107471;1253;75534;-39
2023/05/12 09:48:58;;;;;;;3.60;2.30;;;;;;;20.41;29.07;100240.43;107585;1253;67682;-39
2023/05/12 09:51:25;;;;;;;5.60;2.40;;;;;;;20.69;28.03;100232.27;107323;1253;74768;-39
2023/05/12 09:53:53;;;;;;;2.90;2.10;;;;;;;21.00;27.26;100232.30;107331;1254;61383;-41
2023/05/12 09:56:20;;;;;;;2.70;2.00;;;;;;;21.25;27.53;100223.25;107463;1253;62633;-40
2023/05/12 09:58:48;;;;;;;5.10;1.70;;;;;;;21.45;25.71;100225.77;107507;1253;76074;-38
2023/05/12 10:01:17;;;;;;;4.10;2.10;;;;;;;21.57;25.91;100220.52;107465;1253;69733;-39
2023/05/12 10:03:54;;;;;;;5.70;2.20;;;;;;;21.76;26.52;100218.08;107443;1253;74412;-38
2023/05/12 10:06:33;;;;;;;4.00;2.20;;;;;;;21.98;25.61;100223.70;107461;1253;62404;-38
2023/05/12 10:09:18;;;;;;;5.80;2.30;;;;;;;22.18;24.97;100224.70;107517;1253;61648;-38
2023/05/12 10:11:45;;;;;;;3.90;1.80;;;;;;;22.29;25.24;100221.23;107511;1253;75253;-38
2023/05/12 10:14:13;;;;;;;5.10;2.10;;;;;;;22.36;25.40;100221.66;107442;1253;70292;-38
2023/05/12 10:16:40;;;;;;;4.70;2.10;;;;;;;22.52;25.41;100222.44;107440;1253;74120;-38
2023/05/12 10:19:08;;;;;;;3.90;2.60;;;;;;;22.65;25.23;100220.66;107427;1253;61662;-37
2023/05/12 10:21:37;;;;;;;3.20;2.30;;;;;;;22.79;24.76;100224.70;107417;1252;62664;-37
2023/05/12 10:24:05;;;;;;;4.30;2.30;;;;;;;22.95;24.77;100222.77;107449;1253;74968;-37
2023/05/12 10:26:33;;;;;;;4.80;2.20;;;;;;;23.07;24.40;100221.92;107328;1253;70245;-37
2023/05/12 10:29:01;;;;;;;6.40;2.20;;;;;;;23.20;24.39;100212.89;107367;1254;74946;-37
2023/05/12 10:31:28;;;;;;;5.00;2.30;;;;;;;23.48;23.86;100210.39;107372;1253;61791;-37
2023/05/12 10:33:59;;;;;;;4.80;2.40;;;;;;;23.78;24.20;100205.73;107457;1253;62287;-37
2023/05/12 10:36:27;;;;;;;3.00;2.10;;;;;;;24.05;22.98;100202.55;107562;1252;76146;-37
2023/05/12 10:38:55;;;;;;;4.50;2.30;;;;;;;24.18;22.14;100202.48;107419;1253;68352;-37
2023/05/12 10:41:30;;;;;;;3.40;2.10;;;;;;;24.25;22.36;100202.83;107485;1254;72585;-37
2023/05/12 10:43:57;;;;;;;2.50;2.00;;;;;;;24.33;22.32;100197.08;107454;1255;60544;-37
2023/05/12 10:46:28;;;;;;;2.70;1.70;;;;;;;24.47;21.94;100196.98;107479;1253;61717;-37
2023/05/12 10:49:07;;;;;;;6.60;1.80;;;;;;;24.70;22.28;100198.76;107555;1251;75986;-37
2023/05/12 10:51:44;;;;;;;3.70;1.90;;;;;;;24.93;21.65;100196.85;107553;1253;70730;-38
2023/05/12 10:54:17;;;;;;;4.60;2.10;;;;;;;25.12;21.59;100197.38;107350;1260;73007;-39
2023/05/12 10:56:44;;;;;;;3.90;2.20;;;;;;;25.16;21.39;100193.16;107474;1254;61814;-39
2023/05/12 10:59:22;;;;;;;4.80;2.20;;;;;;;25.13;21.37;100196.48;107431;1253;62045;-40
2023/05/12 11:02:01;;;;;;;4.80;1.80;;;;;;;24.97;21.51;100194.78;107395;1253;74184;-39
2023/05/12 11:04:40;;;;;;;3.50;2.10;;;;;;;24.77;21.54;100197.41;107313;1253;69589;-39
2023/05/12 11:07:09;;;;;;;4.30;2.30;;;;;;;24.52;22.17;100196.70;107255;1256;72741;-40
2023/05/12 11:09:39;;;;;;;;;;;;;;;24.31;22.43;100196.10;107286;1255;62865;-39
2023/05/12 11:12:25;;;;;;;4.30;2.10;;;;;;;24.00;22.65;100196.48;107388;1254;61945;-39
2023/05/12 11:14:52;;;;;;;5.80;2.20;;;;;;;23.75;22.61;100193.61;107334;1254;73192;-39
2023/05/12 11:17:19;;;;;;;4.80;2.00;;;;;;;23.48;22.86;100195.69;107408;1254;69380;-40
2023/05/12 11:19:48;;;;;;;5.20;2.00;;;;;;;23.17;22.94;100190.36;107319;1256;73737;-39
2023/05/12 11:22:17;;;;;;;2.70;1.80;;;;;;;22.85;22.84;100189.55;107310;1258;186304;-40
2023/05/12 11:26:39;;;;;;;2.40;1.70;;;;;;;22.71;24.19;100188.83;104334;1289;601055;-38